Time;durP1;ratioP1;P1;durP2;ratioP2;P2;SDS_P1;SDS_P2;PMS_P1;PMS_P2;Temp;Humidity;BMP_temperature;BMP_pressure;BME280_temperature;BME280_humidity;BME280_pressure;Samples;Min_cycle;Max_cycle;Signal;HPM_P1;HPM_P2
2021/06/29 00:00:25;;;;;;;8.25;7.40;;;19.00;82.10;;;;;;4952832;28;20282;-86
2021/06/29 00:03:00;;;;;;;8.93;7.90;;;19.00;82.20;;;;;;4953387;28;20199;-86
2021/06/29 00:05:26;;;;;;;8.05;7.30;;;19.00;82.30;;;;;;4953991;29;20172;-86
2021/06/29 00:07:51;;;;;;;9.43;8.00;;;18.90;82.40;;;;;;4953190;29;20253;-85
2021/06/29 00:10:17;;;;;;;9.73;7.78;;;19.00;82.10;;;;;;4953193;28;20178;-85
2021/06/29 00:12:43;;;;;;;8.95;7.43;;;19.00;82.30;;;;;;4954297;28;20191;-85
2021/06/29 00:15:09;;;;;;;12.15;7.63;;;19.00;82.60;;;;;;4952964;29;20172;-84
2021/06/29 00:17:35;;;;;;;12.55;7.70;;;18.90;82.90;;;;;;4952934;29;20609;-85
2021/06/29 00:20:01;;;;;;;15.60;8.63;;;18.80;83.40;;;;;;4954189;29;20203;-84
2021/06/29 00:22:26;;;;;;;9.13;8.18;;;18.70;83.60;;;;;;4952741;29;20215;-84
2021/06/29 00:24:52;;;;;;;10.10;8.23;;;18.70;83.50;;;;;;4954097;29;20176;-84
2021/06/29 00:27:18;;;;;;;8.93;7.45;;;18.70;83.40;;;;;;4952701;28;20238;-84
2021/06/29 00:29:43;;;;;;;7.82;7.10;;;18.80;83.20;;;;;;4953932;29;20602;-84
2021/06/29 00:32:09;;;;;;;9.98;7.30;;;18.80;82.90;;;;;;4953845;29;20574;-85
2021/06/29 00:34:35;;;;;;;8.93;7.60;;;19.00;82.50;;;;;;4953847;29;20175;-84
2021/06/29 00:37:00;;;;;;;11.50;7.60;;;19.00;82.30;;;;;;4952634;29;20280;-84
2021/06/29 00:39:26;;;;;;;12.85;7.75;;;19.00;82.30;;;;;;4952585;29;20180;-84
2021/06/29 00:41:51;;;;;;;10.98;8.00;;;19.00;82.20;;;;;;4952460;29;20671;-84
2021/06/29 00:44:23;;;;;;;8.52;7.65;;;19.00;82.20;;;;;;4952495;28;20189;-84
2021/06/29 00:46:50;;;;;;;8.23;7.35;;;19.00;82.30;;;;;;4952444;29;20205;-85
2021/06/29 00:49:16;;;;;;;12.18;8.10;;;19.00;82.10;;;;;;4952501;29;20180;-85
2021/06/29 00:51:42;;;;;;;8.15;7.32;;;19.10;81.90;;;;;;4953560;28;20199;-84
2021/06/29 00:54:09;;;;;;;8.18;7.32;;;19.10;81.80;;;;;;4953686;28;20199;-85
2021/06/29 00:56:37;;;;;;;8.63;7.13;;;19.10;81.30;;;;;;4952314;28;20266;-84
2021/06/29 00:59:03;;;;;;;12.13;7.68;;;19.10;81.00;;;;;;4953552;28;20640;-85
2021/06/29 01:01:29;;;;;;;10.32;7.53;;;19.10;80.80;;;;;;4952211;29;20294;-84
2021/06/29 01:03:54;;;;;;;11.93;8.00;;;19.10;80.50;;;;;;4953438;29;20199;-84
2021/06/29 01:06:20;;;;;;;6.80;6.10;;;19.10;80.30;;;;;;4952171;28;20621;-84
2021/06/29 01:08:46;;;;;;;8.18;6.75;;;19.10;80.20;;;;;;4952167;28;20179;-84
2021/06/29 01:11:15;;;;;;;10.45;6.97;;;19.10;79.90;;;;;;4951752;28;20176;-84
2021/06/29 01:13:45;;;;;;;10.18;7.22;;;19.10;79.90;;;;;;4953318;29;20172;-84
2021/06/29 01:16:12;;;;;;;8.05;7.32;;;19.10;79.80;;;;;;4953588;28;20163;-84
2021/06/29 01:18:40;;;;;;;7.85;7.05;;;19.00;79.70;;;;;;4951980;29;20179;-84
2021/06/29 01:21:07;;;;;;;8.90;7.93;;;19.00;79.60;;;;;;4951933;29;20190;-84
2021/06/29 01:23:35;;;;;;;8.70;7.85;;;19.00;79.60;;;;;;4951859;29;20207;-84
2021/06/29 01:26:13;;;;;;;11.02;8.02;;;19.00;79.60;;;;;;4951846;29;20187;-84
2021/06/29 01:28:55;;;;;;;8.93;7.70;;;18.90;79.60;;;;;;4951928;29;20171;-85
2021/06/29 01:31:21;;;;;;;10.32;7.28;;;18.90;79.60;;;;;;4951828;29;20205;-85
2021/06/29 01:33:47;;;;;;;8.45;7.47;;;18.90;80.10;;;;;;4952688;29;20175;-85
2021/06/29 01:36:18;;;;;;;9.50;7.28;;;18.80;80.60;;;;;;4951758;29;20275;-85
2021/06/29 01:38:46;;;;;;;13.88;8.35;;;18.80;80.60;;;;;;4952989;28;20647;-85
2021/06/29 01:41:13;;;;;;;9.90;7.60;;;18.70;82.00;;;;;;4952002;29;20190;-84
2021/06/29 01:43:47;;;;;;;20.02;9.27;;;18.50;83.00;;;;;;4952939;28;20172;-84
2021/06/29 01:46:14;;;;;;;17.15;9.65;;;18.20;83.60;;;;;;4951587;29;20633;-84
2021/06/29 01:48:50;;;;;;;24.90;9.25;;;18.20;84.10;;;;;;4951584;28;20175;-85
2021/06/29 01:51:17;;;;;;;23.83;10.40;;;18.10;84.30;;;;;;4951895;28;20171;-85
2021/06/29 01:53:45;;;;;;;20.35;10.07;;;17.90;84.60;;;;;;4951557;29;20186;-85
2021/06/29 01:56:14;;;;;;;32.63;10.98;;;17.90;85.10;;;;;;4952743;28;20171;-85
2021/06/29 01:58:51;;;;;;;16.95;9.48;;;17.80;85.10;;;;;;4952849;28;20175;-84
2021/06/29 02:01:17;;;;;;;24.38;9.80;;;17.80;85.10;;;;;;4951462;29;20225;-84
2021/06/29 02:03:43;;;;;;;24.50;9.25;;;17.90;85.10;;;;;;4952577;29;20190;-84
2021/06/29 02:06:08;;;;;;;17.90;9.43;;;18.00;84.80;;;;;;4952515;29;20278;-84
2021/06/29 02:08:34;;;;;;;14.98;8.48;;;18.10;84.60;;;;;;4951410;28;20262;-84
2021/06/29 02:10:59;;;;;;;15.07;8.05;;;18.10;84.20;;;;;;4951257;28;20621;-84
2021/06/29 02:13:25;;;;;;;22.25;9.75;;;18.20;83.60;;;;;;4952500;29;20262;-85
2021/06/29 02:15:51;;;;;;;14.77;9.00;;;18.10;83.80;;;;;;4952449;29;20259;-84
2021/06/29 02:18:17;;;;;;;15.80;9.10;;;18.10;84.00;;;;;;4951243;28;20175;-84
2021/06/29 02:20:42;;;;;;;24.73;9.25;;;18.20;84.00;;;;;;4952382;29;20164;-84
2021/06/29 02:23:08;;;;;;;26.05;9.35;;;18.10;84.20;;;;;;4950056;28;20705;-84
2021/06/29 02:25:34;;;;;;;13.40;8.80;;;18.10;84.20;;;;;;4952390;28;20178;-84
2021/06/29 02:28:00;;;;;;;16.08;8.55;;;18.10;83.90;;;;;;4952179;29;20199;-84
2021/06/29 02:30:25;;;;;;;13.80;8.60;;;18.20;83.90;;;;;;4951171;29;20176;-85
2021/06/29 02:32:51;;;;;;;13.68;8.57;;;18.20;83.70;;;;;;4950918;28;20195;-85
2021/06/29 02:35:17;;;;;;;12.00;8.25;;;18.20;83.30;;;;;;4951058;29;20176;-84
2021/06/29 02:37:43;;;;;;;12.38;7.57;;;18.20;83.10;;;;;;4951332;29;20655;-86
2021/06/29 02:40:10;;;;;;;15.85;7.78;;;18.20;82.90;;;;;;4951342;29;20263;-86
2021/06/29 02:42:37;;;;;;;9.45;7.18;;;18.20;82.60;;;;;;4951196;29;20203;-86
2021/06/29 02:45:06;;;;;;;10.77;8.02;;;18.20;82.20;;;;;;4951225;29;20186;-87
2021/06/29 02:47:34;;;;;;;24.20;8.50;;;18.20;82.00;;;;;;4952186;29;20286;-86
2021/06/29 02:50:00;;;;;;;16.55;8.82;;;18.20;81.90;;;;;;4951385;29;20222;-86
2021/06/29 02:52:26;;;;;;;17.50;10.45;;;18.20;82.70;;;;;;4952469;28;20195;-86
2021/06/29 02:54:51;;;;;;;14.20;8.18;;;18.20;83.00;;;;;;4951232;29;20175;-86
2021/06/29 02:57:17;;;;;;;17.52;9.27;;;18.10;83.50;;;;;;4952480;29;20656;-87
2021/06/29 02:59:43;;;;;;;28.85;10.30;;;18.10;83.70;;;;;;4952337;28;20679;-86
2021/06/29 03:02:08;;;;;;;17.77;9.18;;;18.10;83.90;;;;;;4951299;29;20200;-86
2021/06/29 03:04:34;;;;;;;14.85;9.68;;;18.10;83.80;;;;;;4951254;28;20236;-86
2021/06/29 03:06:59;;;;;;;12.55;9.55;;;18.00;84.10;;;;;;4952413;29;20606;-86
2021/06/29 03:09:25;;;;;;;20.77;10.10;;;18.00;84.30;;;;;;4952389;29;20180;-86
2021/06/29 03:11:51;;;;;;;15.48;10.23;;;18.00;84.40;;;;;;4951105;29;20199;-86
2021/06/29 03:14:16;;;;;;;16.48;9.23;;;18.00;84.50;;;;;;4952371;29;20558;-86
2021/06/29 03:16:42;;;;;;;12.60;8.15;;;18.10;84.50;;;;;;4952037;29;20293;-86
2021/06/29 03:19:08;;;;;;;13.20;8.95;;;18.00;84.40;;;;;;4952158;29;20223;-86
2021/06/29 03:21:33;;;;;;;12.57;8.70;;;18.10;84.30;;;;;;4952033;29;20242;-86
2021/06/29 03:23:59;;;;;;;14.80;9.13;;;18.10;84.00;;;;;;4952091;29;20160;-86
2021/06/29 03:26:25;;;;;;;16.70;8.10;;;18.10;83.60;;;;;;4950754;28;20225;-86
2021/06/29 03:28:50;;;;;;;14.85;10.35;;;18.10;83.40;;;;;;4952038;29;20180;-86
2021/06/29 03:31:16;;;;;;;23.40;10.68;;;18.10;84.70;;;;;;4951390;29;20267;-86
2021/06/29 03:33:42;;;;;;;15.43;9.27;;;18.00;85.30;;;;;;4953063;28;20182;-87
2021/06/29 03:36:08;;;;;;;25.13;10.75;;;17.80;85.90;;;;;;4955352;29;20182;-86
2021/06/29 03:38:35;;;;;;;29.73;10.68;;;17.80;86.30;;;;;;4954128;29;20226;-86
2021/06/29 03:41:00;;;;;;;32.38;11.48;;;17.70;86.70;;;;;;4955195;29;20250;-86
2021/06/29 03:43:26;;;;;;;25.88;11.50;;;17.70;86.80;;;;;;4970475;28;20175;-86
2021/06/29 03:45:52;;;;;;;25.08;11.25;;;17.80;86.90;;;;;;4955443;29;20178;-86
2021/06/29 03:48:17;;;;;;;17.25;11.18;;;18.00;86.90;;;;;;4954908;29;20252;-86
2021/06/29 03:50:43;;;;;;;21.58;11.70;;;18.20;86.80;;;;;;4955737;29;20559;-87
2021/06/29 03:53:09;;;;;;;15.85;9.38;;;18.40;86.60;;;;;;4954044;29;20198;-87
2021/06/29 03:55:35;;;;;;;20.23;10.55;;;18.70;85.80;;;;;;4955238;29;20172;-86
2021/06/29 03:58:01;;;;;;;26.63;9.98;;;18.70;85.00;;;;;;4953897;29;20203;-87
2021/06/29 04:00:27;;;;;;;19.77;10.73;;;18.80;84.90;;;;;;4955003;28;20182;-86
2021/06/29 04:02:52;;;;;;;21.70;11.10;;;18.80;85.10;;;;;;4954061;29;20683;-87
2021/06/29 04:05:18;;;;;;;25.20;9.95;;;18.90;85.50;;;;;;4955112;29;20202;-86
2021/06/29 04:07:47;;;;;;;15.20;11.60;;;18.80;85.40;;;;;;4955370;29;20572;-87
2021/06/29 04:10:13;;;;;;;14.75;11.98;;;18.90;85.30;;;;;;4953681;28;20176;-86
2021/06/29 04:12:38;;;;;;;18.85;11.63;;;19.00;85.80;;;;;;4955476;28;20191;-87
2021/06/29 04:15:06;;;;;;;15.18;11.73;;;19.00;85.70;;;;;;4953892;29;20605;-87
2021/06/29 04:17:32;;;;;;;16.58;12.43;;;19.10;85.90;;;;;;4953672;29;20554;-86
2021/06/29 04:19:57;;;;;;;12.98;11.68;;;19.10;85.50;;;;;;4953616;29;20187;-87
2021/06/29 04:22:23;;;;;;;14.30;12.93;;;19.10;85.70;;;;;;4953872;29;20227;-86
2021/06/29 04:24:49;;;;;;;14.80;12.60;;;19.20;86.10;;;;;;4953882;29;20174;-86
2021/06/29 04:27:14;;;;;;;15.77;13.18;;;19.20;86.70;;;;;;4953614;29;20207;-87
2021/06/29 04:29:40;;;;;;;17.40;11.80;;;19.20;86.90;;;;;;4953870;28;20576;-87
2021/06/29 04:32:06;;;;;;;16.15;14.23;;;19.30;87.10;;;;;;4953638;29;20249;-86
2021/06/29 04:34:32;;;;;;;14.63;13.13;;;19.30;87.10;;;;;;4954623;28;20176;-87
2021/06/29 04:36:58;;;;;;;13.75;12.18;;;19.40;86.90;;;;;;4953585;29;20180;-87
2021/06/29 04:39:24;;;;;;;17.48;13.27;;;19.50;86.50;;;;;;4953442;29;20179;-86
2021/06/29 04:41:50;;;;;;;15.38;13.07;;;19.50;86.40;;;;;;4953635;28;20204;-87
2021/06/29 04:44:16;;;;;;;16.38;13.45;;;19.60;86.70;;;;;;4953464;28;20234;-86
2021/06/29 04:46:41;;;;;;;14.30;12.88;;;19.60;86.30;;;;;;4954852;29;20203;-86
2021/06/29 04:49:07;;;;;;;19.42;12.63;;;19.70;86.40;;;;;;4953551;29;20175;-87
2021/06/29 04:51:32;;;;;;;15.40;13.15;;;19.70;86.40;;;;;;4953504;28;20663;-86
2021/06/29 04:53:58;;;;;;;20.83;12.57;;;19.70;86.40;;;;;;4953868;29;20225;-87
2021/06/29 04:56:24;;;;;;;14.10;12.80;;;19.80;86.20;;;;;;4955027;29;20171;-87
2021/06/29 04:58:55;;;;;;;14.88;13.15;;;19.80;86.00;;;;;;4953607;28;20229;-86
2021/06/29 05:01:41;;;;;;;16.13;13.55;;;19.90;86.00;;;;;;4938766;28;20230;-87
2021/06/29 05:04:07;;;;;;;19.23;14.07;;;20.00;86.00;;;;;;4954552;29;20184;-87
2021/06/29 05:06:32;;;;;;;24.98;15.23;;;19.90;86.50;;;;;;4952795;29;20214;-87
2021/06/29 05:08:58;;;;;;;22.35;14.52;;;20.00;86.70;;;;;;4953195;29;20183;-87
2021/06/29 05:11:23;;;;;;;17.63;14.70;;;20.00;86.50;;;;;;4954191;29;20596;-86
2021/06/29 05:13:49;;;;;;;24.05;14.45;;;20.10;86.50;;;;;;4953178;28;20180;-86
2021/06/29 05:16:15;;;;;;;17.42;14.23;;;20.10;86.50;;;;;;4953255;29;20665;-87
2021/06/29 05:18:40;;;;;;;18.10;14.52;;;20.20;86.30;;;;;;4954257;29;20186;-87
2021/06/29 05:21:06;;;;;;;19.55;15.15;;;20.20;86.10;;;;;;4953259;29;20183;-87
2021/06/29 05:23:31;;;;;;;19.02;14.85;;;20.20;86.10;;;;;;4952943;28;20195;-87
2021/06/29 05:25:57;;;;;;;25.58;15.50;;;20.20;85.90;;;;;;4954256;29;20179;-87
2021/06/29 05:28:23;;;;;;;19.55;14.32;;;20.20;86.20;;;;;;4953048;29;20179;-87
2021/06/29 05:30:49;;;;;;;18.30;15.10;;;20.30;86.20;;;;;;4952607;29;20179;-87
2021/06/29 05:33:16;;;;;;;20.92;16.70;;;20.30;86.50;;;;;;4952724;29;20252;-86
2021/06/29 05:35:42;;;;;;;20.10;14.85;;;20.40;86.80;;;;;;4953675;28;20167;-86
2021/06/29 05:38:08;;;;;;;19.38;16.75;;;20.40;87.10;;;;;;4952534;28;20186;-86
2021/06/29 05:40:34;;;;;;;21.45;18.25;;;20.40;87.60;;;;;;4952186;29;20180;-86
2021/06/29 05:43:00;;;;;;;21.92;18.17;;;20.60;87.60;;;;;;4953196;28;20671;-86
2021/06/29 05:45:26;;;;;;;22.38;20.23;;;20.80;87.10;;;;;;4952191;29;20194;-86
2021/06/29 05:47:53;;;;;;;21.65;19.50;;;20.90;86.80;;;;;;4951894;29;20231;-86
2021/06/29 05:50:19;;;;;;;21.45;19.45;;;21.10;86.50;;;;;;4953393;28;20172;-86
2021/06/29 05:52:45;;;;;;;21.95;19.67;;;21.20;85.80;;;;;;4953295;28;20733;-86
2021/06/29 05:55:11;;;;;;;22.63;19.90;;;21.20;85.20;;;;;;4951720;28;20184;-86
2021/06/29 05:57:37;;;;;;;20.25;18.33;;;21.30;84.90;;;;;;4952179;29;20172;-86
2021/06/29 06:00:08;;;;;;;20.63;18.38;;;21.30;84.10;;;;;;4952104;28;20599;-86
2021/06/29 06:02:34;;;;;;;20.17;18.13;;;21.30;84.30;;;;;;4951927;29;20253;-86
2021/06/29 06:04:59;;;;;;;21.92;19.50;;;21.20;83.80;;;;;;4952367;29;20555;-87
2021/06/29 06:07:25;;;;;;;21.88;19.20;;;21.20;84.30;;;;;;4953036;29;20286;-86
2021/06/29 06:09:50;;;;;;;22.90;20.00;;;21.20;84.30;;;;;;4952038;29;20187;-86
2021/06/29 06:12:16;;;;;;;22.02;19.75;;;21.30;84.40;;;;;;4951887;29;20191;-87
2021/06/29 06:14:42;;;;;;;21.60;19.30;;;21.30;83.90;;;;;;4951656;29;20644;-86
2021/06/29 06:17:07;;;;;;;21.63;19.17;;;21.30;84.40;;;;;;4952660;29;20210;-86
2021/06/29 06:19:33;;;;;;;21.63;19.42;;;21.30;83.90;;;;;;4952740;29;20549;-86
2021/06/29 06:21:58;;;;;;;20.55;18.45;;;21.30;83.70;;;;;;4952694;29;20195;-86
2021/06/29 06:24:24;;;;;;;22.13;18.60;;;21.50;83.20;;;;;;4951647;29;20280;-86
2021/06/29 06:26:50;;;;;;;20.80;18.58;;;21.50;83.60;;;;;;4952755;29;20741;-86
2021/06/29 06:29:16;;;;;;;20.77;18.60;;;21.60;83.40;;;;;;4953017;29;20175;-86
2021/06/29 06:31:41;;;;;;;21.75;18.83;;;21.70;83.10;;;;;;4952947;29;20660;-87
2021/06/29 06:34:07;;;;;;;19.73;17.73;;;21.70;82.60;;;;;;4953002;29;20172;-86
2021/06/29 06:36:33;;;;;;;19.60;17.70;;;21.80;82.90;;;;;;4952652;29;20678;-86
2021/06/29 06:38:59;;;;;;;18.75;16.80;;;21.90;82.70;;;;;;4952887;28;20175;-86
2021/06/29 06:41:24;;;;;;;21.95;18.33;;;21.90;83.00;;;;;;4951536;28;20210;-86
2021/06/29 06:43:50;;;;;;;21.70;18.17;;;21.90;82.80;;;;;;4953239;29;20314;-87
2021/06/29 06:46:16;;;;;;;20.63;18.52;;;22.00;82.50;;;;;;4953171;29;20203;-87
2021/06/29 06:48:45;;;;;;;22.63;19.25;;;22.00;82.00;;;;;;4951835;29;20266;-87
2021/06/29 06:51:10;;;;;;;20.00;17.95;;;22.10;81.90;;;;;;4952893;29;20712;-87
2021/06/29 06:53:36;;;;;;;20.05;17.80;;;22.10;81.40;;;;;;4953190;28;20207;-87
2021/06/29 06:56:03;;;;;;;20.20;18.20;;;22.10;81.80;;;;;;4954375;29;20665;-87
2021/06/29 06:58:28;;;;;;;19.00;17.13;;;22.20;82.10;;;;;;4955885;28;20164;-88
2021/06/29 07:00:54;;;;;;;26.50;17.10;;;22.20;82.00;;;;;;4957183;29;20187;-88
2021/06/29 07:03:20;;;;;;;20.92;18.63;;;22.40;82.40;;;;;;4957573;29;20195;-88
2021/06/29 07:05:46;;;;;;;20.27;17.40;;;22.40;81.20;;;;;;4955964;29;20182;-87
2021/06/29 07:08:12;;;;;;;20.50;16.35;;;22.40;81.00;;;;;;4958005;28;20213;-88
2021/06/29 07:10:37;;;;;;;19.05;17.10;;;22.50;81.50;;;;;;4959302;29;20270;-88
2021/06/29 07:13:03;;;;;;;17.98;16.38;;;22.70;80.50;;;;;;4958828;28;20199;-88
2021/06/29 07:15:29;;;;;;;26.08;18.30;;;22.70;80.80;;;;;;4959538;29;20637;-88
2021/06/29 07:17:56;;;;;;;18.63;16.70;;;22.70;80.70;;;;;;4958505;29;20184;-87
2021/06/29 07:20:21;;;;;;;22.35;16.92;;;22.70;80.50;;;;;;4960201;28;20258;-87
2021/06/29 07:22:47;;;;;;;17.27;15.63;;;22.80;80.40;;;;;;4957559;29;20227;-88
2021/06/29 07:25:13;;;;;;;21.60;15.10;;;22.90;80.30;;;;;;4957721;29;20183;-87
2021/06/29 07:27:39;;;;;;;16.50;14.80;;;22.90;80.40;;;;;;4959359;29;20203;-87
2021/06/29 07:30:07;;;;;;;17.10;15.40;;;22.90;80.00;;;;;;4957960;28;20262;-88
2021/06/29 07:32:33;;;;;;;22.23;15.95;;;22.90;79.80;;;;;;4957475;29;20278;-87
2021/06/29 07:34:59;;;;;;;21.05;15.90;;;22.90;79.90;;;;;;4957674;28;20178;-87
2021/06/29 07:37:25;;;;;;;22.90;15.27;;;22.90;79.70;;;;;;4957282;29;20255;-87
2021/06/29 07:39:50;;;;;;;19.10;16.50;;;23.00;79.50;;;;;;4955868;29;20563;-87
2021/06/29 07:42:16;;;;;;;18.05;15.35;;;22.90;79.30;;;;;;4955488;29;20199;-87
2021/06/29 07:44:43;;;;;;;17.63;15.93;;;22.90;79.40;;;;;;4956550;29;20599;-87
2021/06/29 07:47:08;;;;;;;20.92;16.80;;;23.00;78.90;;;;;;4956447;29;20207;-87
2021/06/29 07:49:34;;;;;;;19.08;17.17;;;23.00;79.30;;;;;;4954706;28;20546;-87
2021/06/29 07:52:00;;;;;;;18.90;16.83;;;23.10;78.40;;;;;;4955529;28;20192;-87
2021/06/29 07:54:25;;;;;;;15.95;14.40;;;23.20;78.40;;;;;;4955701;28;20179;-87
2021/06/29 07:56:51;;;;;;;16.75;15.02;;;23.30;78.00;;;;;;4956766;28;20183;-87
2021/06/29 07:59:17;;;;;;;16.48;14.82;;;23.30;77.20;;;;;;4957635;29;20211;-87
2021/06/29 08:01:42;;;;;;;15.25;13.65;;;23.40;77.70;;;;;;4958262;29;20675;-87
2021/06/29 08:04:08;;;;;;;16.88;13.73;;;23.40;77.10;;;;;;4955559;29;20183;-87
2021/06/29 08:06:34;;;;;;;14.05;11.45;;;23.50;76.80;;;;;;4954278;28;20257;-87
2021/06/29 08:08:59;;;;;;;15.88;10.13;;;23.50;75.20;;;;;;4955671;29;20178;-88
2021/06/29 08:11:25;;;;;;;8.93;7.32;;;23.50;75.80;;;;;;4956148;29;20613;-87
2021/06/29 08:13:51;;;;;;;9.48;6.50;;;23.70;75.10;;;;;;4954768;28;20202;-87
2021/06/29 08:16:17;;;;;;;6.90;6.10;;;23.50;74.50;;;;;;4953769;29;20574;-87
2021/06/29 08:18:42;;;;;;;9.00;6.93;;;23.60;74.00;;;;;;4955260;28;20659;-87
2021/06/29 08:21:08;;;;;;;7.90;6.15;;;23.80;73.60;;;;;;4953813;28;20297;-87
2021/06/29 08:23:34;;;;;;;6.50;5.88;;;23.80;72.70;;;;;;4956965;28;20226;-88
2021/06/29 08:26:00;;;;;;;6.75;5.47;;;23.70;72.30;;;;;;4957471;28;20176;-88
2021/06/29 08:28:26;;;;;;;7.20;6.00;;;23.80;73.00;;;;;;4959558;29;20179;-88
2021/06/29 08:30:52;;;;;;;6.70;6.10;;;23.90;73.40;;;;;;4958132;29;20184;-88
2021/06/29 08:33:22;;;;;;;6.25;5.65;;;24.00;72.40;;;;;;4958571;28;20269;-88
2021/06/29 08:35:49;;;;;;;6.53;5.97;;;24.20;71.80;;;;;;4956877;29;20180;-87
2021/06/29 08:38:16;;;;;;;5.93;5.43;;;24.10;71.40;;;;;;4960860;28;20258;-88
2021/06/29 08:40:42;;;;;;;6.28;5.38;;;24.20;72.60;;;;;;4961390;29;20191;-88
2021/06/29 08:43:09;;;;;;;6.65;5.43;;;24.30;71.30;;;;;;4960849;29;20207;-88
2021/06/29 08:45:35;;;;;;;6.32;5.25;;;24.40;70.70;;;;;;4961321;29;20603;-88
2021/06/29 08:48:02;;;;;;;7.25;6.10;;;24.40;70.90;;;;;;4961978;28;20207;-88
2021/06/29 08:50:30;;;;;;;5.65;5.15;;;24.50;70.20;;;;;;4956757;29;20179;-89
2021/06/29 08:53:01;;;;;;;8.68;5.68;;;24.60;70.70;;;;;;4957698;29;20233;-88
2021/06/29 08:55:31;;;;;;;8.20;5.28;;;24.60;69.90;;;;;;4956062;28;20176;-87
2021/06/29 08:57:57;;;;;;;5.43;4.93;;;24.70;70.60;;;;;;4954342;28;20237;-87
2021/06/29 09:00:22;;;;;;;7.57;5.45;;;24.90;69.80;;;;;;4954338;29;20654;-87
2021/06/29 09:02:48;;;;;;;6.00;5.50;;;24.80;69.30;;;;;;4954514;29;20667;-87
2021/06/29 09:05:23;;;;;;;5.80;5.22;;;24.80;69.50;;;;;;4953700;28;20651;-87
2021/06/29 09:08:10;;;;;;;8.68;5.60;;;24.70;70.50;;;;;;4955318;28;20237;-88
2021/06/29 09:10:38;;;;;;;6.28;5.78;;;24.70;70.10;;;;;;4955438;28;20178;-87
2021/06/29 09:13:05;;;;;;;6.38;4.45;;;24.70;69.90;;;;;;4956906;28;20651;-87
2021/06/29 09:15:44;;;;;;;6.10;5.50;;;24.70;70.30;;;;;;4954721;29;20187;-87
2021/06/29 09:18:11;;;;;;;5.75;4.85;;;24.70;70.50;;;;;;4954440;28;20155;-87
2021/06/29 09:20:41;;;;;;;7.93;5.28;;;24.60;70.50;;;;;;4952066;29;20557;-87
2021/06/29 09:23:28;;;;;;;10.18;6.03;;;24.50;71.10;;;;;;4953079;29;20211;-86
2021/06/29 09:25:56;;;;;;;11.10;4.88;;;24.30;71.20;;;;;;4953321;29;20167;-86
2021/06/29 09:28:25;;;;;;;9.63;6.63;;;24.30;72.30;;;;;;4951792;29;20705;-86
2021/06/29 09:30:52;;;;;;;6.30;5.70;;;24.10;71.80;;;;;;4951678;29;20211;-86
2021/06/29 09:33:21;;;;;;;7.63;5.25;;;24.20;71.80;;;;;;4953019;28;20187;-86
2021/06/29 09:35:50;;;;;;;10.60;5.78;;;24.20;71.90;;;;;;4951834;28;20276;-86
2021/06/29 09:38:21;;;;;;;6.20;4.97;;;24.10;72.80;;;;;;4951772;29;20176;-87
2021/06/29 09:40:53;;;;;;;5.63;5.15;;;24.20;72.40;;;;;;4951749;29;20168;-87
2021/06/29 09:43:19;;;;;;;9.98;5.78;;;24.30;72.40;;;;;;4951648;29;20207;-86
2021/06/29 09:45:48;;;;;;;7.57;6.25;;;24.40;71.20;;;;;;4952823;29;20191;-86
2021/06/29 09:48:16;;;;;;;6.82;6.13;;;24.40;70.50;;;;;;4953070;28;20199;-87
2021/06/29 09:50:46;;;;;;;8.65;6.43;;;24.50;70.70;;;;;;4952760;28;20176;-87
2021/06/29 09:53:12;;;;;;;7.72;5.72;;;24.30;71.20;;;;;;4952678;28;20191;-86
2021/06/29 09:55:43;;;;;;;10.55;7.15;;;24.40;71.30;;;;;;4952736;28;20551;-86
2021/06/29 09:58:10;;;;;;;7.03;6.30;;;24.40;71.30;;;;;;4952792;28;20202;-87
2021/06/29 10:00:49;;;;;;;9.18;7.15;;;24.40;71.40;;;;;;4952782;28;20179;-87
2021/06/29 10:03:30;;;;;;;9.73;7.72;;;24.40;70.90;;;;;;4952560;28;20199;-86
2021/06/29 10:05:58;;;;;;;7.70;6.90;;;24.40;70.90;;;;;;4951616;29;20179;-87
2021/06/29 10:08:25;;;;;;;9.15;7.45;;;24.10;71.00;;;;;;4951448;29;20282;-87
2021/06/29 10:11:13;;;;;;;10.93;7.57;;;24.20;72.10;;;;;;4951300;29;20270;-87
2021/06/29 10:13:43;;;;;;;8.27;6.85;;;24.20;72.40;;;;;;4951316;29;20180;-87
2021/06/29 10:16:10;;;;;;;9.40;6.13;;;24.40;73.90;;;;;;4951306;29;20556;-86
2021/06/29 10:18:40;;;;;;;10.18;7.63;;;24.40;73.30;;;;;;4951190;29;20207;-86
2021/06/29 10:21:23;;;;;;;8.70;7.25;;;24.40;74.60;;;;;;4951074;29;20187;-86
2021/06/29 10:23:53;;;;;;;8.65;7.85;;;24.50;75.90;;;;;;4951100;29;20187;-85
2021/06/29 10:26:19;;;;;;;9.30;7.95;;;24.50;75.50;;;;;;4952250;28;20176;-85
2021/06/29 10:28:46;;;;;;;11.45;7.90;;;24.50;75.20;;;;;;4952339;28;20182;-85
2021/06/29 10:31:18;;;;;;;10.13;8.73;;;24.50;74.20;;;;;;4952260;28;20176;-85
2021/06/29 10:33:46;;;;;;;11.95;10.18;;;24.30;74.30;;;;;;4951026;29;20678;-85
2021/06/29 10:36:12;;;;;;;11.07;9.88;;;24.30;76.30;;;;;;4952190;28;20237;-85
2021/06/29 10:38:38;;;;;;;15.80;9.75;;;24.20;76.80;;;;;;4951020;29;20184;-85
2021/06/29 10:41:04;;;;;;;10.90;9.77;;;24.20;76.70;;;;;;4951988;29;20221;-85
2021/06/29 10:43:35;;;;;;;11.60;9.63;;;24.20;77.20;;;;;;4953656;28;20639;-85
2021/06/29 10:46:01;;;;;;;12.98;9.30;;;24.20;77.10;;;;;;4955858;28;20573;-85
2021/06/29 10:48:28;;;;;;;10.05;9.15;;;24.20;77.60;;;;;;4954199;29;20234;-85
2021/06/29 10:51:00;;;;;;;14.27;9.68;;;24.20;77.60;;;;;;4955442;28;20215;-86
2021/06/29 10:53:41;;;;;;;11.48;10.23;;;24.20;77.30;;;;;;4955371;29;20171;-85
2021/06/29 10:56:20;;;;;;;13.68;9.77;;;24.10;76.90;;;;;;4954572;29;20176;-85
2021/06/29 10:58:49;;;;;;;11.70;10.48;;;23.90;77.70;;;;;;4954455;29;20176;-85
2021/06/29 11:01:34;;;;;;;12.60;10.52;;;23.80;77.90;;;;;;4954124;29;20179;-85
2021/06/29 11:04:03;;;;;;;16.75;12.00;;;23.60;77.50;;;;;;4954179;29;20175;-85
2021/06/29 11:06:37;;;;;;;11.65;10.57;;;23.40;78.70;;;;;;4955364;28;20199;-85
2021/06/29 11:09:04;;;;;;;14.52;11.70;;;23.40;79.00;;;;;;4954222;29;20169;-85
2021/06/29 11:11:32;;;;;;;13.02;11.13;;;23.20;79.70;;;;;;4955111;28;20721;-85
2021/06/29 11:13:58;;;;;;;12.50;11.30;;;23.20;80.20;;;;;;4955135;28;20540;-85
2021/06/29 11:16:53;;;;;;;13.77;12.48;;;23.50;79.90;;;;;;4955125;28;20187;-85
2021/06/29 11:19:19;;;;;;;12.95;11.77;;;23.40;79.60;;;;;;4953982;29;20241;-85
2021/06/29 11:21:47;;;;;;;14.15;12.45;;;23.20;79.30;;;;;;4953603;28;20736;-86
2021/06/29 11:24:35;;;;;;;14.15;12.82;;;23.20;79.40;;;;;;4955224;28;20616;-85
2021/06/29 11:27:00;;;;;;;14.57;13.27;;;23.10;80.90;;;;;;4953935;28;20203;-85
2021/06/29 11:29:39;;;;;;;13.40;12.10;;;23.10;81.20;;;;;;4954977;28;20620;-86
2021/06/29 11:32:31;;;;;;;17.83;12.85;;;23.00;81.60;;;;;;4953598;28;20198;-85
2021/06/29 11:35:35;;;;;;;11.02;9.93;;;23.20;80.70;;;;;;4954837;28;20245;-86
2021/06/29 11:38:09;;;;;;;6.75;5.53;;;23.20;78.90;;;;;;4953577;29;20236;-85
2021/06/29 11:40:35;;;;;;;3.45;3.15;;;23.20;76.20;;;;;;4954966;28;20160;-85
2021/06/29 11:43:12;;;;;;;4.88;3.85;;;23.20;75.30;;;;;;4954979;28;20613;-85
2021/06/29 11:45:38;;;;;;;3.95;3.35;;;23.30;75.40;;;;;;4953478;29;20186;-85
2021/06/29 11:48:04;;;;;;;2.70;2.50;;;23.50;75.80;;;;;;4954605;28;20195;-85
2021/06/29 11:50:42;;;;;;;2.50;2.38;;;23.40;73.30;;;;;;4954653;28;20179;-85
2021/06/29 11:53:25;;;;;;;4.45;2.70;;;23.50;73.40;;;;;;4953291;29;20242;-85
2021/06/29 11:55:51;;;;;;;3.20;2.38;;;23.40;72.10;;;;;;4953196;29;20279;-85
2021/06/29 11:58:17;;;;;;;2.80;2.60;;;23.50;72.80;;;;;;4954486;29;20287;-85
2021/06/29 12:00:42;;;;;;;3.50;2.53;;;23.50;71.90;;;;;;4954667;29;20179;-85
2021/06/29 12:03:16;;;;;;;2.63;2.42;;;23.50;70.40;;;;;;4954340;29;20280;-85
2021/06/29 12:05:42;;;;;;;3.40;2.33;;;23.40;70.70;;;;;;4953208;29;20171;-85
2021/06/29 12:08:10;;;;;;;3.45;2.55;;;23.50;69.10;;;;;;4954252;28;20754;-85
2021/06/29 12:10:49;;;;;;;3.15;2.35;;;23.60;70.80;;;;;;4954335;28;20178;-85
2021/06/29 12:13:26;;;;;;;2.70;2.50;;;23.60;71.10;;;;;;4954506;28;20252;-85
2021/06/29 12:15:54;;;;;;;6.13;2.28;;;23.70;70.30;;;;;;4953063;29;20628;-85
2021/06/29 12:18:28;;;;;;;3.45;2.70;;;23.60;71.40;;;;;;4954214;28;20207;-85
2021/06/29 12:20:56;;;;;;;2.10;2.00;;;23.50;71.00;;;;;;4953049;28;20182;-84
2021/06/29 12:23:27;;;;;;;3.03;2.70;;;23.30;68.20;;;;;;4952895;29;20596;-84
2021/06/29 12:25:57;;;;;;;4.65;2.60;;;23.50;70.50;;;;;;4954072;28;20199;-84
2021/06/29 12:28:25;;;;;;;10.23;3.17;;;23.50;71.20;;;;;;4953963;28;20280;-85
2021/06/29 12:30:52;;;;;;;3.75;3.45;;;23.50;72.00;;;;;;4954065;28;20172;-85
2021/06/29 12:33:20;;;;;;;4.28;3.40;;;23.50;72.80;;;;;;4952652;29;20200;-85
2021/06/29 12:35:51;;;;;;;5.35;3.47;;;23.50;72.20;;;;;;4954019;29;20184;-85
2021/06/29 12:38:20;;;;;;;3.30;3.00;;;23.70;72.50;;;;;;4954430;28;20160;-85